Time;durP1;ratioP1;P1;durP2;ratioP2;P2;SDS_P1;SDS_P2;PMS_P1;PMS_P2;Temp;Humidity;BMP_temperature;BMP_pressure;BME280_temperature;BME280_humidity;BME280_pressure;Samples;Min_cycle;Max_cycle;Signal;HPM_P1;HPM_P2
2023/03/28 00:00:43;;;;;;;15.20;1.52;;;5.60;98.80;;;;;;4934732;29;20082;-73
2023/03/28 00:03:13;;;;;;;19.02;2.42;;;5.60;98.80;;;;;;4934914;29;20023;-74
2023/03/28 00:05:40;;;;;;;11.57;1.80;;;5.60;98.60;;;;;;4934039;29;20058;-73
2023/03/28 00:08:07;;;;;;;16.63;1.83;;;5.50;98.60;;;;;;4934682;29;20534;-73
2023/03/28 00:10:32;;;;;;;10.32;1.80;;;5.50;98.30;;;;;;4917727;29;20426;-73
2023/03/28 00:12:58;;;;;;;12.07;1.80;;;5.40;98.40;;;;;;4934391;29;20040;-72
2023/03/28 00:15:24;;;;;;;24.50;1.98;;;5.50;98.40;;;;;;4934530;29;20028;-71
2023/03/28 00:17:51;;;;;;;10.65;1.67;;;5.60;98.30;;;;;;4933934;29;20043;-70
2023/03/28 00:20:17;;;;;;;17.67;2.08;;;5.60;98.00;;;;;;4933486;29;20039;-71
2023/03/28 00:22:43;;;;;;;11.07;2.15;;;5.30;98.20;;;;;;4934288;29;20039;-72
2023/03/28 00:25:09;;;;;;;9.80;1.92;;;5.40;98.50;;;;;;4934249;29;20032;-71
2023/03/28 00:27:35;;;;;;;15.15;1.80;;;5.40;98.50;;;;;;4934310;29;20449;-71
2023/03/28 00:30:02;;;;;;;12.18;1.98;;;5.20;98.60;;;;;;4933292;29;20035;-71
2023/03/28 00:32:28;;;;;;;12.40;2.17;;;5.50;98.40;;;;;;4934247;29;20470;-71
2023/03/28 00:34:53;;;;;;;8.05;1.48;;;5.40;98.40;;;;;;4934277;29;20042;-72
2023/03/28 00:37:19;;;;;;;13.13;1.80;;;5.30;98.50;;;;;;4934264;29;20038;-71
2023/03/28 00:39:48;;;;;;;11.48;1.73;;;5.20;98.90;;;;;;4917090;29;20036;-72
2023/03/28 00:42:19;;;;;;;13.00;1.83;;;5.20;98.70;;;;;;4916378;29;20051;-71
2023/03/28 00:44:54;;;;;;;13.88;3.03;;;5.20;98.80;;;;;;4935038;29;20032;-72
2023/03/28 00:47:50;;;;;;;7.45;1.48;;;5.10;98.80;;;;;;4934206;29;20039;-71
2023/03/28 00:50:27;;;;;;;10.43;1.67;;;5.00;99.20;;;;;;4933962;29;20039;-71
2023/03/28 00:53:04;;;;;;;17.77;2.07;;;5.10;99.70;;;;;;4932847;29;20526;-70
2023/03/28 00:55:36;;;;;;;13.18;1.70;;;5.10;99.30;;;;;;4933722;29;20051;-71
2023/03/28 00:58:05;;;;;;;15.70;1.50;;;5.10;99.60;;;;;;4933787;29;20485;-71
2023/03/28 01:00:33;;;;;;;10.55;1.75;;;5.00;99.60;;;;;;4916819;29;20039;-71
2023/03/28 01:03:00;;;;;;;;;;;5.10;99.50;;;;;;4934733;29;20067;-70
2023/03/28 01:05:29;;;;;;;8.43;1.63;;;5.00;99.80;;;;;;4934047;29;19919;-71
2023/03/28 01:08:04;;;;;;;6.50;1.52;;;5.10;99.60;;;;;;4933398;29;20583;-71
2023/03/28 01:10:31;;;;;;;12.48;1.90;;;5.10;99.60;;;;;;4933647;29;20122;-71
2023/03/28 01:12:59;;;;;;;13.52;2.40;;;5.00;99.80;;;;;;4933472;29;20039;-71
2023/03/28 01:15:25;;;;;;;10.10;2.17;;;5.00;99.90;;;;;;4933458;29;20365;-71
2023/03/28 01:17:52;;;;;;;17.92;2.30;;;5.10;99.90;;;;;;4934071;29;20046;-70
2023/03/28 01:20:35;;;;;;;7.68;1.75;;;4.80;99.90;;;;;;4916627;29;20393;-70
2023/03/28 01:23:33;;;;;;;8.38;1.20;;;5.10;99.90;;;;;;4932542;29;20335;-71
2023/03/28 01:26:10;;;;;;;7.28;1.17;;;5.20;99.90;;;;;;4933000;29;20393;-72
2023/03/28 01:29:27;;;;;;;9.70;1.60;;;5.10;99.90;;;;;;4933500;29;20544;-71
2023/03/28 01:32:27;;;;;;;7.82;1.20;;;5.00;99.90;;;;;;4901084;29;20418;-71
2023/03/28 01:35:09;;;;;;;9.07;1.85;;;5.10;99.90;;;;;;4933962;29;20036;-70
2023/03/28 01:37:41;;;;;;;12.25;1.70;;;5.00;99.90;;;;;;4952704;29;20420;-71
2023/03/28 01:40:42;;;;;;;16.27;1.52;;;5.10;99.90;;;;;;4952432;29;20492;-71
2023/03/28 01:43:30;;;;;;;10.38;1.45;;;5.00;99.90;;;;;;4948319;29;20031;-71
2023/03/28 01:46:01;;;;;;;16.23;2.28;;;5.00;99.90;;;;;;4952353;29;20042;-71
2023/03/28 01:48:39;;;;;;;10.65;1.35;;;5.00;99.90;;;;;;4952630;29;20038;-71
2023/03/28 01:51:19;;;;;;;11.82;1.75;;;5.00;99.90;;;;;;4952733;29;20035;-71
2023/03/28 01:54:00;;;;;;;14.32;1.58;;;5.00;99.90;;;;;;4956505;29;20054;-71
2023/03/28 01:56:36;;;;;;;14.50;1.90;;;5.00;99.90;;;;;;4956259;29;20046;-70
2023/03/28 01:59:06;;;;;;;10.40;2.00;;;4.90;99.90;;;;;;4956230;29;20046;-71
2023/03/28 02:02:10;;;;;;;11.57;1.58;;;4.80;99.90;;;;;;4956177;29;20126;-72
2023/03/28 02:04:40;;;;;;;17.25;1.80;;;4.90;99.90;;;;;;4956180;29;20346;-71
2023/03/28 02:07:07;;;;;;;15.23;2.10;;;4.80;99.90;;;;;;4956018;29;20416;-71
2023/03/28 02:09:34;;;;;;;15.90;1.90;;;4.80;99.90;;;;;;4938893;29;20117;-70
2023/03/28 02:12:07;;;;;;;13.75;2.20;;;4.90;99.90;;;;;;4956329;29;20436;-71
2023/03/28 02:14:40;;;;;;;15.00;1.90;;;4.90;99.90;;;;;;4939027;29;20116;-71
2023/03/28 02:17:14;;;;;;;19.77;2.20;;;4.90;99.90;;;;;;4955887;29;20094;-72
2023/03/28 02:19:45;;;;;;;19.77;2.00;;;4.90;99.90;;;;;;4955708;29;20028;-72
2023/03/28 02:22:21;;;;;;;13.40;2.22;;;4.90;99.90;;;;;;4955800;29;20485;-70
2023/03/28 02:24:50;;;;;;;16.50;1.85;;;4.90;99.90;;;;;;4955853;28;20126;-71
2023/03/28 02:27:18;;;;;;;16.05;2.10;;;5.00;99.90;;;;;;4955594;29;20071;-71
2023/03/28 02:29:44;;;;;;;18.58;2.28;;;5.10;99.90;;;;;;4939219;29;20023;-71
2023/03/28 02:32:10;;;;;;;16.17;1.70;;;5.00;99.90;;;;;;4938515;29;20054;-70
2023/03/28 02:34:36;;;;;;;11.23;2.17;;;4.90;99.90;;;;;;4955357;29;20183;-71
2023/03/28 02:37:30;;;;;;;11.88;1.67;;;4.90;99.90;;;;;;4955480;29;20469;-71
2023/03/28 02:40:26;;;;;;;13.52;2.00;;;4.90;99.90;;;;;;4951673;29;20058;-72
2023/03/28 02:42:54;;;;;;;11.43;1.85;;;4.90;99.90;;;;;;4955710;29;20327;-72
2023/03/28 02:45:51;;;;;;;13.55;2.03;;;4.80;99.90;;;;;;4955826;29;20034;-71
2023/03/28 02:48:43;;;;;;;17.73;2.55;;;4.70;99.90;;;;;;4955705;29;20079;-72
2023/03/28 02:51:28;;;;;;;8.98;1.92;;;4.80;99.90;;;;;;4955225;29;20019;-71
2023/03/28 02:54:03;;;;;;;13.52;1.65;;;4.60;99.90;;;;;;4955730;29;20027;-72
2023/03/28 02:57:02;;;;;;;16.70;1.92;;;4.60;99.90;;;;;;4955340;29;20032;-72
2023/03/28 03:00:08;;;;;;;14.43;2.25;;;4.70;99.90;;;;;;4955325;29;20036;-72
2023/03/28 03:02:34;;;;;;;13.75;1.63;;;4.60;99.90;;;;;;4953893;29;20350;-71
2023/03/28 03:05:00;;;;;;;16.83;2.33;;;4.70;99.90;;;;;;4954315;28;20041;-72
2023/03/28 03:07:27;;;;;;;18.67;2.72;;;4.70;99.90;;;;;;4954753;29;20043;-71
2023/03/28 03:09:53;;;;;;;10.82;1.75;;;4.80;99.90;;;;;;4954869;29;20118;-71
2023/03/28 03:12:22;;;;;;;14.23;2.28;;;4.80;99.90;;;;;;4937918;29;20474;-71
2023/03/28 03:14:49;;;;;;;21.80;1.70;;;4.90;99.90;;;;;;4955274;29;20512;-71
2023/03/28 03:17:19;;;;;;;10.63;2.63;;;4.90;99.90;;;;;;4955573;29;20039;-71
2023/03/28 03:19:45;;;;;;;12.30;1.90;;;4.90;99.90;;;;;;4954571;29;20035;-71
2023/03/28 03:22:11;;;;;;;16.52;2.10;;;4.80;99.90;;;;;;4954600;29;20623;-71
2023/03/28 03:24:37;;;;;;;13.68;2.10;;;5.00;99.90;;;;;;4954621;28;20131;-71
2023/03/28 03:27:03;;;;;;;11.20;1.67;;;4.90;99.90;;;;;;4954658;29;20031;-71
2023/03/28 03:29:29;;;;;;;13.63;1.70;;;4.90;99.90;;;;;;4955163;29;20110;-71
2023/03/28 03:31:54;;;;;;;12.05;1.63;;;4.90;99.90;;;;;;4937278;29;20401;-70
2023/03/28 03:34:20;;;;;;;16.20;1.83;;;4.80;99.90;;;;;;4954421;29;20042;-71
2023/03/28 03:36:46;;;;;;;13.25;1.88;;;4.90;99.90;;;;;;4954610;29;20038;-71
2023/03/28 03:39:11;;;;;;;17.02;2.05;;;5.00;99.90;;;;;;4954397;29;20031;-71
2023/03/28 03:41:37;;;;;;;4.97;1.15;;;4.90;99.90;;;;;;4955169;29;20099;-71
2023/03/28 03:44:03;;;;;;;17.92;2.03;;;4.90;99.90;;;;;;4954667;29;20063;-71
2023/03/28 03:46:29;;;;;;;10.18;2.05;;;4.80;99.90;;;;;;4954284;29;20396;-71
2023/03/28 03:48:55;;;;;;;9.05;1.48;;;4.80;99.90;;;;;;4954273;29;20039;-71
2023/03/28 03:51:21;;;;;;;9.88;1.48;;;4.80;99.90;;;;;;4954171;29;20050;-72
2023/03/28 03:53:49;;;;;;;7.50;1.75;;;4.70;99.90;;;;;;4954632;29;20432;-70
2023/03/28 03:56:15;;;;;;;14.68;1.90;;;4.80;99.90;;;;;;4954083;29;20042;-71
2023/03/28 03:58:41;;;;;;;14.65;2.30;;;4.80;99.90;;;;;;4937062;29;20043;-71
2023/03/28 04:01:12;;;;;;;9.32;1.52;;;4.80;99.90;;;;;;4953983;29;20033;-70
2023/03/28 04:03:41;;;;;;;17.92;2.30;;;4.80;99.90;;;;;;4936994;29;20333;-71
2023/03/28 04:06:07;;;;;;;21.67;1.80;;;4.70;99.90;;;;;;4953846;29;20457;-72
2023/03/28 04:08:33;;;;;;;11.48;1.63;;;4.70;99.90;;;;;;4954256;29;20465;-71
2023/03/28 04:10:59;;;;;;;8.43;1.70;;;4.70;99.90;;;;;;4954009;29;20060;-70
2023/03/28 04:13:24;;;;;;;11.25;1.80;;;4.90;99.90;;;;;;4953888;29;20035;-72
2023/03/28 04:15:50;;;;;;;14.40;2.13;;;4.80;99.90;;;;;;4953567;28;20484;-71
2023/03/28 04:18:19;;;;;;;18.67;2.28;;;4.80;99.90;;;;;;4953590;29;20027;-71
2023/03/28 04:20:52;;;;;;;8.68;2.03;;;4.90;99.90;;;;;;4936984;29;20377;-71
2023/03/28 04:23:19;;;;;;;24.00;2.75;;;4.90;99.90;;;;;;4953725;28;20321;-71
2023/03/28 04:25:48;;;;;;;14.05;2.28;;;5.00;99.90;;;;;;4953686;29;20032;-71
2023/03/28 04:28:15;;;;;;;15.15;1.90;;;4.80;99.90;;;;;;4953243;29;20054;-71
2023/03/28 04:30:42;;;;;;;11.23;2.00;;;4.70;99.90;;;;;;4953324;29;20051;-71
2023/03/28 04:33:08;;;;;;;18.33;2.08;;;4.80;99.90;;;;;;4953405;29;20027;-70
2023/03/28 04:35:34;;;;;;;20.23;2.50;;;4.80;99.90;;;;;;4953677;29;20106;-71
2023/03/28 04:38:01;;;;;;;20.33;2.83;;;4.70;99.90;;;;;;4953267;29;20114;-71
2023/03/28 04:40:28;;;;;;;15.43;2.08;;;4.70;99.90;;;;;;4953138;29;20027;-71
2023/03/28 04:42:54;;;;;;;20.52;2.40;;;4.60;99.90;;;;;;4936386;29;20101;-71
2023/03/28 04:45:20;;;;;;;24.60;2.70;;;4.60;99.90;;;;;;4953316;29;20439;-70
2023/03/28 04:47:46;;;;;;;14.98;2.25;;;4.70;99.90;;;;;;4953491;29;20111;-71
2023/03/28 04:50:12;;;;;;;10.50;1.85;;;4.70;99.90;;;;;;4936402;29;20142;-71
2023/03/28 04:52:38;;;;;;;12.90;1.90;;;4.70;99.90;;;;;;4953135;29;20126;-71
2023/03/28 04:55:04;;;;;;;16.92;2.38;;;4.60;99.90;;;;;;4953379;29;20087;-70
2023/03/28 04:57:30;;;;;;;10.93;2.47;;;4.60;99.90;;;;;;4952804;29;20043;-70
2023/03/28 04:59:56;;;;;;;16.27;2.35;;;4.60;99.90;;;;;;4953367;29;20392;-70
2023/03/28 05:02:21;;;;;;;15.02;1.90;;;4.60;99.90;;;;;;4952825;29;20457;-69
2023/03/28 05:04:47;;;;;;;21.90;2.55;;;4.60;99.90;;;;;;4935910;29;20090;-69
2023/03/28 05:07:13;;;;;;;13.57;2.20;;;4.60;99.90;;;;;;4952776;29;20027;-71
2023/03/28 05:09:38;;;;;;;13.40;2.05;;;4.60;99.90;;;;;;4952810;29;20031;-71
2023/03/28 05:12:04;;;;;;;18.00;2.72;;;4.50;99.90;;;;;;4952718;29;20114;-70
2023/03/28 05:14:30;;;;;;;17.55;2.42;;;4.60;99.90;;;;;;4953158;29;20019;-70
2023/03/28 05:16:56;;;;;;;9.85;1.73;;;4.70;99.90;;;;;;4952836;29;20050;-71
2023/03/28 05:19:23;;;;;;;17.52;3.20;;;4.60;99.90;;;;;;4952699;29;20078;-71
2023/03/28 05:21:49;;;;;;;14.65;2.40;;;4.60;99.90;;;;;;4952599;29;20384;-71
2023/03/28 05:24:15;;;;;;;17.23;2.25;;;4.70;99.90;;;;;;4952394;28;20034;-70
2023/03/28 05:26:41;;;;;;;17.90;2.30;;;4.70;99.90;;;;;;4952919;28;20019;-72
2023/03/28 05:29:06;;;;;;;12.10;2.00;;;4.80;99.90;;;;;;4952733;29;20031;-71
2023/03/28 05:31:32;;;;;;;15.57;2.22;;;4.80;99.90;;;;;;4952329;29;20050;-72
2023/03/28 05:33:58;;;;;;;21.33;2.08;;;4.70;99.90;;;;;;4952295;29;20363;-72
2023/03/28 05:36:23;;;;;;;13.07;2.10;;;4.80;99.90;;;;;;4952344;29;20081;-71
2023/03/28 05:38:49;;;;;;;20.77;2.47;;;4.70;99.90;;;;;;4952840;29;20038;-72
2023/03/28 05:41:15;;;;;;;13.43;2.88;;;4.70;99.90;;;;;;4935318;29;20031;-72
2023/03/28 05:43:41;;;;;;;17.17;2.55;;;5.00;99.90;;;;;;4952377;29;20082;-71
2023/03/28 05:46:06;;;;;;;16.85;2.20;;;4.80;99.90;;;;;;4935493;29;20071;-71
2023/03/28 05:48:32;;;;;;;10.07;1.75;;;4.90;99.90;;;;;;4935392;29;20361;-70
2023/03/28 05:50:58;;;;;;;7.88;1.88;;;4.90;99.90;;;;;;4936170;29;20097;-71
2023/03/28 05:53:24;;;;;;;13.65;1.90;;;4.90;99.90;;;;;;4935320;29;20028;-71
2023/03/28 05:55:49;;;;;;;20.77;2.83;;;4.80;99.90;;;;;;4952100;29;20043;-71
2023/03/28 05:58:16;;;;;;;17.38;2.45;;;4.90;99.90;;;;;;4935032;29;20130;-70
2023/03/28 06:00:43;;;;;;;11.27;2.00;;;4.90;99.90;;;;;;4952275;29;20086;-71
2023/03/28 06:03:09;;;;;;;16.77;2.23;;;4.90;99.90;;;;;;4952158;29;20024;-70
2023/03/28 06:05:36;;;;;;;13.00;2.25;;;5.10;99.90;;;;;;4952544;29;20265;-72
2023/03/28 06:08:02;;;;;;;21.55;2.17;;;4.90;99.90;;;;;;4951959;29;20170;-71
2023/03/28 06:10:28;;;;;;;16.60;1.58;;;5.10;99.90;;;;;;4952035;29;20038;-70
2023/03/28 06:12:54;;;;;;;14.50;1.98;;;5.40;99.90;;;;;;4934972;29;20043;-70
2023/03/28 06:15:19;;;;;;;9.07;2.05;;;5.20;99.90;;;;;;4935198;29;20449;-71
2023/03/28 06:17:45;;;;;;;11.38;2.05;;;5.30;99.90;;;;;;4952819;29;20046;-70
2023/03/28 06:20:11;;;;;;;15.55;2.38;;;5.30;99.90;;;;;;4952010;29;20054;-71
2023/03/28 06:22:37;;;;;;;9.02;1.92;;;5.30;99.70;;;;;;4951823;29;20031;-70
2023/03/28 06:25:04;;;;;;;23.95;2.95;;;5.40;99.70;;;;;;4951904;28;20039;-70
2023/03/28 06:27:30;;;;;;;10.82;2.08;;;5.40;99.60;;;;;;4951569;29;20035;-70
2023/03/28 06:29:57;;;;;;;12.65;2.35;;;5.40;99.70;;;;;;4952222;29;20338;-72
2023/03/28 06:32:22;;;;;;;6.97;2.00;;;5.30;99.60;;;;;;4952020;29;20043;-71
2023/03/28 06:34:48;;;;;;;13.52;2.05;;;5.40;99.30;;;;;;4951903;29;20027;-73
2023/03/28 06:37:14;;;;;;;14.57;1.42;;;5.50;99.50;;;;;;4952046;29;20019;-71
2023/03/28 06:39:40;;;;;;;13.98;2.17;;;5.30;99.30;;;;;;4953700;28;20496;-70
2023/03/28 06:42:05;;;;;;;16.40;2.40;;;5.30;99.20;;;;;;4955556;29;20043;-71
2023/03/28 06:44:31;;;;;;;14.63;2.60;;;5.20;99.10;;;;;;4956137;29;20031;-72
2023/03/28 06:46:57;;;;;;;13.25;2.28;;;5.30;99.20;;;;;;4955902;29;20348;-72
2023/03/28 06:49:23;;;;;;;20.00;2.55;;;5.40;99.20;;;;;;4955534;29;20035;-71
2023/03/28 06:51:49;;;;;;;11.05;2.67;;;5.50;98.90;;;;;;4955106;29;20559;-70
2023/03/28 06:54:14;;;;;;;17.58;2.30;;;5.70;98.80;;;;;;4955390;29;20023;-71
2023/03/28 06:56:40;;;;;;;13.93;2.63;;;5.80;98.50;;;;;;4956148;29;20503;-72
2023/03/28 06:59:06;;;;;;;15.30;2.53;;;6.00;98.20;;;;;;4955273;29;20058;-71
2023/03/28 07:01:32;;;;;;;20.52;2.42;;;6.20;98.10;;;;;;4955258;29;20035;-71
2023/03/28 07:03:58;;;;;;;11.75;2.08;;;6.40;97.70;;;;;;4955112;29;20035;-72
2023/03/28 07:06:26;;;;;;;15.00;1.95;;;6.30;97.20;;;;;;4955374;29;20078;-72
2023/03/28 07:08:52;;;;;;;12.45;2.03;;;6.30;97.20;;;;;;4955764;29;20264;-69
2023/03/28 07:11:17;;;;;;;13.77;2.15;;;6.50;97.70;;;;;;4955331;29;20043;-70
2023/03/28 07:13:43;;;;;;;15.25;2.15;;;6.70;97.40;;;;;;4955232;29;20589;-69
2023/03/28 07:16:14;;;;;;;19.42;2.35;;;6.70;96.80;;;;;;4955183;29;20031;-71
2023/03/28 07:18:40;;;;;;;10.43;2.05;;;6.80;96.70;;;;;;4955234;29;20031;-69
2023/03/28 07:21:11;;;;;;;14.40;2.20;;;6.70;96.60;;;;;;4955286;29;20046;-71
2023/03/28 07:23:41;;;;;;;21.05;3.10;;;6.60;96.20;;;;;;4955348;28;20031;-69
2023/03/28 07:26:08;;;;;;;11.18;2.20;;;6.70;96.30;;;;;;4938311;29;20317;-69
2023/03/28 07:28:35;;;;;;;21.33;2.17;;;6.70;96.30;;;;;;4954627;29;20035;-69
2023/03/28 07:31:01;;;;;;;21.42;2.22;;;6.70;96.20;;;;;;4954371;29;20674;-69
2023/03/28 07:33:27;;;;;;;11.60;2.40;;;6.70;96.20;;;;;;4955275;29;20126;-71
2023/03/28 07:35:53;;;;;;;12.63;2.25;;;6.60;96.20;;;;;;4954417;29;20055;-71
2023/03/28 07:38:19;;;;;;;8.63;1.80;;;6.80;96.50;;;;;;4954765;29;20070;-71
2023/03/28 07:40:45;;;;;;;17.52;2.20;;;6.80;96.10;;;;;;4954433;29;20027;-70
2023/03/28 07:43:11;;;;;;;18.30;3.10;;;6.80;96.00;;;;;;4954524;29;20101;-70
2023/03/28 07:45:36;;;;;;;15.75;2.92;;;6.70;96.10;;;;;;4937451;29;20063;-79
2023/03/28 07:48:03;;;;;;;13.40;2.22;;;6.70;96.20;;;;;;4955117;29;20033;-72
2023/03/28 07:50:30;;;;;;;13.88;2.38;;;6.70;96.10;;;;;;4954208;28;20032;-73
2023/03/28 07:52:59;;;;;;;12.05;2.10;;;6.70;96.10;;;;;;4953819;29;20057;-71
2023/03/28 07:55:26;;;;;;;20.88;2.33;;;6.70;96.00;;;;;;4953774;29;20174;-71
2023/03/28 07:57:52;;;;;;;15.13;2.35;;;6.90;96.20;;;;;;4954014;29;20495;-72
2023/03/28 08:00:21;;;;;;;11.50;1.90;;;7.00;95.80;;;;;;4953908;29;20038;-73
2023/03/28 08:02:47;;;;;;;11.95;2.42;;;6.90;95.80;;;;;;4954720;29;20012;-70
2023/03/28 08:05:13;;;;;;;13.68;2.13;;;7.00;95.60;;;;;;4936703;29;20043;-71
2023/03/28 08:07:40;;;;;;;19.83;2.45;;;7.00;95.80;;;;;;4954156;29;20122;-71
2023/03/28 08:10:08;;;;;;;19.30;2.03;;;7.20;95.60;;;;;;4936837;29;20050;-71
2023/03/28 08:12:34;;;;;;;22.60;3.00;;;7.30;95.50;;;;;;4953440;29;20058;-73
2023/03/28 08:15:00;;;;;;;21.13;2.47;;;7.30;95.10;;;;;;4954559;29;20058;-73
2023/03/28 08:17:25;;;;;;;15.57;2.53;;;7.00;95.00;;;;;;4953392;29;20477;-73
2023/03/28 08:19:51;;;;;;;13.60;2.40;;;7.20;95.50;;;;;;4954191;29;20058;-72
2023/03/28 08:22:17;;;;;;;10.55;2.15;;;7.30;95.10;;;;;;4936548;29;20050;-72
2023/03/28 08:24:43;;;;;;;12.27;2.10;;;7.40;95.20;;;;;;4936971;29;20404;-73
2023/03/28 08:27:08;;;;;;;12.45;1.98;;;7.70;95.00;;;;;;4953593;29;20031;-76
2023/03/28 08:29:34;;;;;;;13.18;2.10;;;8.00;95.00;;;;;;4953851;29;20051;-70
2023/03/28 08:32:00;;;;;;;15.00;3.03;;;8.30;94.60;;;;;;4953255;29;20046;-70
2023/03/28 08:34:26;;;;;;;14.25;2.72;;;8.40;94.20;;;;;;4953560;29;20050;-70
2023/03/28 08:36:53;;;;;;;12.32;2.05;;;9.00;94.40;;;;;;4953434;29;20063;-70
2023/03/28 08:39:18;;;;;;;20.77;3.45;;;9.30;93.10;;;;;;4953513;29;20023;-70
2023/03/28 08:42:12;;;;;;;11.30;1.90;;;9.60;92.90;;;;;;4953885;29;20023;-72
2023/03/28 08:45:04;;;;;;;13.60;1.98;;;10.20;92.10;;;;;;4953623;29;20110;-71
2023/03/28 08:47:50;;;;;;;15.60;1.85;;;10.20;91.10;;;;;;4936141;29;20101;-70
2023/03/28 08:50:28;;;;;;;12.07;1.75;;;10.10;91.10;;;;;;4953175;29;20115;-72
2023/03/28 08:52:54;;;;;;;21.50;4.55;;;9.90;91.50;;;;;;4953011;29;20288;-70
2023/03/28 08:55:28;;;;;;;13.73;2.90;;;10.00;91.00;;;;;;4952753;29;20047;-71
2023/03/28 08:57:56;;;;;;;19.27;3.58;;;10.10;90.90;;;;;;4953169;29;20035;-71
2023/03/28 09:00:35;;;;;;;12.73;2.42;;;10.20;90.80;;;;;;4952770;29;20173;-72
2023/03/28 09:03:10;;;;;;;17.17;1.90;;;10.20;90.40;;;;;;4952577;28;20063;-72
2023/03/28 09:06:13;;;;;;;13.25;2.45;;;9.60;91.10;;;;;;4952877;29;20062;-71
2023/03/28 09:08:56;;;;;;;19.15;2.53;;;9.80;91.30;;;;;;4936123;29;20043;-71
2023/03/28 09:11:33;;;;;;;17.30;2.13;;;9.40;91.20;;;;;;4953531;29;20035;-71
2023/03/28 09:14:27;;;;;;;15.60;1.88;;;9.40;91.60;;;;;;4954234;29;20233;-71
2023/03/28 09:17:17;;;;;;;9.20;2.20;;;9.40;91.50;;;;;;4936984;29;20027;-71
2023/03/28 09:20:12;;;;;;;17.02;2.05;;;9.40;91.70;;;;;;4953858;29;20028;-71
2023/03/28 09:23:11;;;;;;;17.23;2.45;;;9.70;91.80;;;;;;4936591;29;20417;-70
2023/03/28 09:25:45;;;;;;;12.00;1.75;;;9.90;91.40;;;;;;4953142;29;20070;-71
2023/03/28 09:28:43;;;;;;;13.98;2.45;;;9.70;90.90;;;;;;4952846;29;20089;-72
2023/03/28 09:31:13;;;;;;;10.95;1.50;;;9.50;91.10;;;;;;4935335;29;20067;-77
2023/03/28 09:33:41;;;;;;;10.27;1.52;;;9.30;90.90;;;;;;4952466;29;20107;-73
2023/03/28 09:36:17;;;;;;;11.40;1.92;;;9.40;91.30;;;;;;4952702;29;20086;-73
2023/03/28 09:39:00;;;;;;;12.55;2.08;;;9.50;91.20;;;;;;4936203;29;20031;-72
2023/03/28 09:42:04;;;;;;;18.38;2.80;;;9.80;91.00;;;;;;4935578;29;20063;-70
2023/03/28 09:44:39;;;;;;;14.90;2.00;;;9.90;91.10;;;;;;4950769;29;20051;-70
2023/03/28 09:47:13;;;;;;;12.35;1.77;;;9.80;90.60;;;;;;4952876;29;20466;-71
2023/03/28 09:49:39;;;;;;;8.07;1.60;;;9.50;90.90;;;;;;4935671;29;20066;-72
2023/03/28 09:52:18;;;;;;;11.75;2.15;;;9.40;91.10;;;;;;4952705;29;20055;-71
2023/03/28 09:54:45;;;;;;;16.10;2.58;;;9.40;91.20;;;;;;4935261;29;20462;-72
2023/03/28 09:57:10;;;;;;;21.67;2.55;;;9.60;91.00;;;;;;4952672;29;20114;-71
2023/03/28 09:59:36;;;;;;;14.93;2.20;;;9.60;90.90;;;;;;4952780;29;20386;-69
2023/03/28 10:02:03;;;;;;;20.92;2.22;;;9.60;90.90;;;;;;4952280;29;20031;-70
2023/03/28 10:04:29;;;;;;;10.25;2.25;;;9.80;90.70;;;;;;4952358;29;20488;-71
2023/03/28 10:07:15;;;;;;;19.33;3.05;;;9.70;90.70;;;;;;4936017;29;20346;-71
2023/03/28 10:09:53;;;;;;;15.10;2.30;;;10.30;90.30;;;;;;4935074;29;20038;-70
2023/03/28 10:12:24;;;;;;;16.42;2.30;;;10.20;89.50;;;;;;4935284;29;20410;-71
2023/03/28 10:14:49;;;;;;;19.75;2.30;;;10.40;90.00;;;;;;4956480;29;20438;-72
2023/03/28 10:17:32;;;;;;;21.85;2.97;;;10.80;89.70;;;;;;4956092;29;20240;-72
2023/03/28 10:20:20;;;;;;;11.73;2.25;;;11.20;88.80;;;;;;4956410;29;20042;-71
2023/03/28 10:22:47;;;;;;;;;;;11.20;87.20;;;;;;4956261;28;20803;-71
2023/03/28 10:25:20;;;;;;;12.02;1.98;;;11.60;86.40;;;;;;4955658;29;19920;-72
2023/03/28 10:27:46;;;;;;;13.88;2.00;;;11.50;83.90;;;;;;4955740;29;20061;-70
2023/03/28 10:30:28;;;;;;;11.38;2.33;;;11.70;83.60;;;;;;4955324;29;20093;-69
2023/03/28 10:33:22;;;;;;;16.15;1.77;;;12.00;83.70;;;;;;4956029;29;20026;-71
2023/03/28 10:35:56;;;;;;;20.02;2.25;;;12.70;80.30;;;;;;4938551;29;20035;-70
2023/03/28 10:38:24;;;;;;;11.77;1.98;;;13.40;79.70;;;;;;4955492;29;20032;-69
2023/03/28 10:41:16;;;;;;;;;;;14.40;76.80;;;;;;4955919;29;20040;-71
2023/03/28 10:43:41;;;;;;;15.15;2.85;;;15.10;72.90;;;;;;4951508;29;20265;-71
2023/03/28 10:46:10;;;;;;;13.95;1.98;;;15.00;70.20;;;;;;4955371;29;20070;-70
2023/03/28 10:48:38;;;;;;;8.43;1.70;;;16.00;75.10;;;;;;4955285;29;20043;-70
2023/03/28 10:51:07;;;;;;;13.90;2.05;;;15.30;66.80;;;;;;4955930;29;20057;-70
2023/03/28 10:53:48;;;;;;;12.77;2.88;;;15.00;68.80;;;;;;4938659;29;20031;-70
2023/03/28 10:56:40;;;;;;;9.88;2.13;;;14.60;68.60;;;;;;4938077;29;20602;-70
2023/03/28 10:59:08;;;;;;;11.10;2.30;;;14.70;70.70;;;;;;4955170;29;20027;-70
2023/03/28 11:01:53;;;;;;;10.82;2.28;;;15.20;68.80;;;;;;4954970;29;20035;-67
2023/03/28 11:04:32;;;;;;;12.02;2.25;;;15.60;68.10;;;;;;4938688;29;20070;-70
2023/03/28 11:07:16;;;;;;;10.07;1.98;;;15.90;66.00;;;;;;4955325;29;20043;-70
2023/03/28 11:09:51;;;;;;;10.63;2.15;;;16.10;65.30;;;;;;4954843;29;20477;-71
2023/03/28 11:12:43;;;;;;;9.43;2.22;;;14.70;64.40;;;;;;4938068;29;20090;-70
2023/03/28 11:15:23;;;;;;;11.23;1.90;;;14.00;65.40;;;;;;4953586;29;20035;-70
2023/03/28 11:18:12;;;;;;;12.02;2.42;;;13.30;65.00;;;;;;4955473;29;20445;-70
2023/03/28 11:20:47;;;;;;;12.15;1.88;;;13.40;66.40;;;;;;4955306;29;20524;-72
2023/03/28 11:23:34;;;;;;;9.18;1.40;;;14.00;67.10;;;;;;4955952;28;20119;-72
2023/03/28 11:26:14;;;;;;;12.38;2.40;;;14.50;64.30;;;;;;4955147;28;20465;-70
2023/03/28 11:28:45;;;;;;;8.00;1.58;;;14.70;63.10;;;;;;4956206;29;20027;-69
2023/03/28 11:31:16;;;;;;;8.30;2.15;;;14.90;62.30;;;;;;4938200;29;20051;-70
2023/03/28 11:33:49;;;;;;;11.70;1.95;;;14.70;62.00;;;;;;4938310;29;20454;-71
2023/03/28 11:36:20;;;;;;;11.60;2.03;;;14.90;62.80;;;;;;4954729;29;20349;-71
2023/03/28 11:38:56;;;;;;;11.98;2.13;;;15.20;63.40;;;;;;4955146;29;20023;-70
2023/03/28 11:41:28;;;;;;;10.65;2.35;;;15.30;62.80;;;;;;4955255;29;20102;-70
2023/03/28 11:44:13;;;;;;;9.57;1.98;;;14.70;61.10;;;;;;4954253;29;20107;-71
2023/03/28 11:46:53;;;;;;;9.82;1.70;;;14.70;61.80;;;;;;4954078;29;20034;-70
2023/03/28 11:49:49;;;;;;;9.48;1.83;;;15.30;61.70;;;;;;4937028;29;20039;-70
2023/03/28 11:52:35;;;;;;;8.05;1.58;;;15.10;61.60;;;;;;4953964;29;20089;-69
2023/03/28 11:55:21;;;;;;;6.13;1.70;;;14.30;63.30;;;;;;4936985;29;20039;-69
2023/03/28 11:57:55;;;;;;;6.85;1.73;;;13.80;61.80;;;;;;4954315;29;20046;-69
2023/03/28 12:00:27;;;;;;;7.78;1.52;;;13.90;62.40;;;;;;4937116;29;20023;-70
2023/03/28 12:03:04;;;;;;;6.82;1.63;;;14.10;61.00;;;;;;4937507;29;20027;-71
2023/03/28 12:05:44;;;;;;;9.98;1.20;;;13.60;59.50;;;;;;4954038;29;20143;-70
2023/03/28 12:08:13;;;;;;;8.50;1.95;;;13.70;60.20;;;;;;4954119;29;20365;-69
2023/03/28 12:10:44;;;;;;;11.85;3.60;;;13.80;60.70;;;;;;4936472;29;20062;-69
2023/03/28 12:13:11;;;;;;;8.18;1.88;;;13.80;59.90;;;;;;4953647;29;20040;-70
2023/03/28 12:15:41;;;;;;;9.18;1.70;;;13.70;60.40;;;;;;4953505;29;20416;-72
2023/03/28 12:18:23;;;;;;;7.32;1.45;;;13.20;60.60;;;;;;4953544;29;20031;-71
2023/03/28 12:20:59;;;;;;;9.07;1.75;;;13.30;60.80;;;;;;4953887;29;20421;-71
2023/03/28 12:23:41;;;;;;;11.95;2.42;;;13.20;60.80;;;;;;4953481;28;20387;-70
2023/03/28 12:26:31;;;;;;;5.20;1.67;;;13.10;61.20;;;;;;4952667;29;20058;-70
2023/03/28 12:29:04;;;;;;;6.28;1.40;;;13.40;61.40;;;;;;4936641;29;20115;-70
2023/03/28 12:31:36;;;;;;;5.20;1.60;;;13.40;61.90;;;;;;4953768;29;20465;-70
2023/03/28 12:34:26;;;;;;;8.05;1.60;;;13.50;60.80;;;;;;4953845;29;20036;-70
2023/03/28 12:37:10;;;;;;;8.68;1.85;;;13.20;60.50;;;;;;4953399;28;20401;-71
2023/03/28 12:39:39;;;;;;;16.58;1.60;;;13.30;59.10;;;;;;4953978;29;20040;-71
2023/03/28 12:42:10;;;;;;;7.90;1.38;;;13.10;58.60;;;;;;4956623;29;20078;-70
2023/03/28 12:44:59;;;;;;;6.00;1.20;;;13.10;59.50;;;;;;4955263;29;20023;-71
2023/03/28 12:47:34;;;;;;;8.80;1.75;;;13.10;60.30;;;;;;4953211;29;20027;-70
2023/03/28 12:50:17;;;;;;;9.23;1.38;;;12.90;58.80;;;;;;4953439;29;20035;-71
2023/03/28 12:52:44;;;;;;;6.40;1.17;;;12.90;58.70;;;;;;4954070;29;20035;-70
2023/03/28 12:55:39;;;;;;;9.63;1.73;;;12.80;59.20;;;;;;4952873;29;20042;-71
2023/03/28 12:58:25;;;;;;;7.72;1.55;;;12.60;60.20;;;;;;4936511;29;20034;-70
2023/03/28 13:01:01;;;;;;;6.80;1.30;;;12.70;60.40;;;;;;4953261;29;20433;-70
2023/03/28 13:03:56;;;;;;;5.72;1.17;;;12.60;59.30;;;;;;4952958;29;20039;-71
2023/03/28 13:06:26;;;;;;;5.07;1.40;;;12.70;59.30;;;;;;4953068;29;20024;-71
2023/03/28 13:08:54;;;;;;;3.17;0.90;;;12.80;59.40;;;;;;4953345;29;20357;-68
2023/03/28 13:11:56;;;;;;;6.05;1.20;;;12.70;59.50;;;;;;4952993;29;20046;-70
2023/03/28 13:14:31;;;;;;;8.40;2.90;;;13.00;58.90;;;;;;4952905;29;20031;-68